Time;durP1;ratioP1;P1;durP2;ratioP2;P2;SDS_P1;SDS_P2;PMS_P1;PMS_P2;Temp;Humidity;BMP_temperature;BMP_pressure;BME280_temperature;BME280_humidity;BME280_pressure;Samples;Min_cycle;Max_cycle;Signal;HPM_P1;HPM_P2
2024/01/23 00:01:15;;;;;;;0.87;0.87;;;6.50;1.00;;;;;;5101710;28;20174;-84
2024/01/23 00:03:41;;;;;;;0.70;0.70;;;6.60;1.00;;;;;;5085331;28;20270;-85
2024/01/23 00:06:07;;;;;;;0.70;0.70;;;6.60;1.00;;;;;;5085939;28;20197;-87
2024/01/23 00:08:32;;;;;;;0.70;0.70;;;6.60;1.00;;;;;;5097890;28;20228;-85
2024/01/23 00:10:58;;;;;;;0.80;0.80;;;6.60;1.00;;;;;;5105695;28;20169;-86
2024/01/23 00:13:24;;;;;;;0.80;0.80;;;6.60;1.00;;;;;;5105507;28;20182;-86
2024/01/23 00:15:50;;;;;;;0.70;0.70;;;6.60;1.00;;;;;;5105337;28;20169;-85
2024/01/23 00:18:15;;;;;;;0.80;0.80;;;6.60;1.00;;;;;;5105912;28;20185;-84
2024/01/23 00:20:41;;;;;;;0.80;0.80;;;6.60;1.00;;;;;;5103061;28;20173;-86
2024/01/23 00:23:06;;;;;;;0.70;0.70;;;6.60;1.00;;;;;;5106586;28;20173;-86
2024/01/23 00:25:32;;;;;;;0.73;0.73;;;6.60;1.00;;;;;;5110058;28;20178;-82
2024/01/23 00:27:58;;;;;;;0.70;0.70;;;6.60;1.00;;;;;;5111496;28;20194;-86
2024/01/23 00:30:23;;;;;;;0.70;0.70;;;6.60;1.00;;;;;;5111481;28;20209;-82
2024/01/23 00:32:49;;;;;;;0.70;0.70;;;6.60;1.00;;;;;;5084314;28;20185;-85
2024/01/23 00:35:15;;;;;;;0.83;0.83;;;6.60;1.00;;;;;;5085897;28;20162;-85
2024/01/23 00:37:41;;;;;;;0.70;0.70;;;6.60;1.00;;;;;;5099118;28;20581;-86
2024/01/23 00:40:11;;;;;;;0.70;0.70;;;6.60;1.00;;;;;;5103669;28;20181;-85
2024/01/23 00:42:37;;;;;;;0.70;0.70;;;6.60;1.00;;;;;;5085458;28;20666;-85
2024/01/23 00:45:03;;;;;;;0.80;0.80;;;6.70;1.00;;;;;;5103813;28;20178;-85
2024/01/23 00:47:30;;;;;;;0.90;0.90;;;6.60;1.00;;;;;;5117904;28;20261;-85
2024/01/23 00:49:56;;;;;;;0.60;0.60;;;6.50;1.00;;;;;;5104159;28;20206;-86
2024/01/23 00:52:23;;;;;;;0.80;0.80;;;6.50;1.00;;;;;;5088347;28;20227;-85
2024/01/23 00:54:49;;;;;;;0.77;0.77;;;6.50;1.00;;;;;;5089662;28;20178;-86
2024/01/23 00:57:14;;;;;;;0.80;0.80;;;6.50;1.00;;;;;;5088167;28;20201;-83
2024/01/23 00:59:40;;;;;;;0.70;0.70;;;6.50;1.00;;;;;;5089883;28;20194;-84
2024/01/23 01:02:05;;;;;;;0.80;0.80;;;6.50;1.00;;;;;;5088580;28;20181;-85
2024/01/23 01:04:31;;;;;;;0.80;0.80;;;6.50;1.00;;;;;;5088823;28;20228;-87
2024/01/23 01:06:56;;;;;;;0.73;0.73;;;6.60;1.00;;;;;;5103430;28;20221;-83
2024/01/23 01:09:22;;;;;;;0.70;0.70;;;6.50;1.00;;;;;;5118889;28;20213;-81
2024/01/23 01:11:47;;;;;;;0.70;0.70;;;6.50;1.00;;;;;;5119094;28;20157;-84
2024/01/23 01:14:14;;;;;;;0.80;0.80;;;6.40;1.00;;;;;;5108502;28;20173;-83
2024/01/23 01:16:39;;;;;;;0.80;0.80;;;6.40;1.00;;;;;;5103827;28;20198;-85
2024/01/23 01:19:05;;;;;;;0.80;0.80;;;6.40;1.00;;;;;;5119185;28;20210;-84
2024/01/23 01:21:30;;;;;;;0.70;0.70;;;6.50;1.00;;;;;;5092721;28;20178;-83
2024/01/23 01:23:56;;;;;;;0.90;0.90;;;6.50;1.00;;;;;;5097743;28;20185;-83
2024/01/23 01:26:21;;;;;;;0.80;0.80;;;6.50;1.00;;;;;;5090213;28;20194;-84
2024/01/23 01:28:47;;;;;;;0.73;0.73;;;6.50;1.00;;;;;;5083318;28;20226;-86
2024/01/23 01:31:12;;;;;;;0.70;0.70;;;6.50;1.00;;;;;;5079899;28;20183;-85
2024/01/23 01:33:38;;;;;;;0.80;0.80;;;6.40;1.00;;;;;;5078195;28;20179;-84
2024/01/23 01:36:04;;;;;;;0.70;0.70;;;6.30;12.50;;;;;;5062293;28;20198;-85
2024/01/23 01:38:29;;;;;;;0.80;0.80;;;6.30;33.00;;;;;;5079941;28;20201;-85
2024/01/23 01:40:57;;;;;;;0.67;0.67;;;6.30;53.90;;;;;;5081175;28;20265;-85
2024/01/23 01:43:27;;;;;;;0.80;0.80;;;6.30;92.00;;;;;;5099076;28;20178;-86
2024/01/23 01:46:15;;;;;;;0.77;0.77;;;6.30;94.90;;;;;;5098439;28;20173;-85
2024/01/23 01:48:42;;;;;;;0.80;0.80;;;6.20;99.90;;;;;;5078305;28;20702;-86
2024/01/23 01:51:08;;;;;;;0.70;0.70;;;6.20;99.90;;;;;;5078457;28;20508;-85
2024/01/23 01:53:34;;;;;;;0.70;0.70;;;6.20;96.40;;;;;;5079605;28;20186;-86
2024/01/23 01:56:05;;;;;;;0.80;0.80;;;6.20;99.90;;;;;;5079686;28;20221;-86
2024/01/23 01:58:31;;;;;;;0.70;0.70;;;6.20;99.90;;;;;;5064424;28;20181;-85
2024/01/23 02:01:00;;;;;;;0.73;0.73;;;6.20;96.80;;;;;;5082429;28;20185;-85
2024/01/23 02:03:27;;;;;;;0.80;0.80;;;6.10;90.00;;;;;;5082013;28;20174;-85
2024/01/23 02:05:53;;;;;;;0.77;0.77;;;6.10;70.80;;;;;;5064019;28;20166;-87
2024/01/23 02:08:19;;;;;;;0.73;0.73;;;6.10;70.10;;;;;;5064112;28;20178;-86
2024/01/23 02:10:45;;;;;;;0.60;0.60;;;6.10;72.20;;;;;;5082546;28;20221;-85
2024/01/23 02:13:11;;;;;;;0.80;0.80;;;6.10;55.00;;;;;;5082098;28;20246;-84
2024/01/23 02:15:38;;;;;;;0.73;0.73;;;6.10;60.00;;;;;;5083781;28;20171;-85
2024/01/23 02:18:05;;;;;;;0.70;0.70;;;6.00;63.40;;;;;;5082381;28;20191;-87
2024/01/23 02:20:30;;;;;;;0.77;0.77;;;6.10;64.30;;;;;;5082387;28;20182;-83
2024/01/23 02:22:56;;;;;;;0.80;0.80;;;6.00;64.70;;;;;;5083336;28;20185;-86
2024/01/23 02:25:22;;;;;;;0.70;0.70;;;5.90;77.10;;;;;;5065093;28;20181;-86
2024/01/23 02:27:48;;;;;;;0.73;0.73;;;5.90;72.30;;;;;;5082714;28;20221;-83
2024/01/23 02:30:13;;;;;;;0.67;0.67;;;5.90;62.00;;;;;;5082903;28;20232;-86
2024/01/23 02:32:43;;;;;;;0.70;0.70;;;5.90;51.40;;;;;;5083327;28;20233;-86
2024/01/23 02:35:09;;;;;;;0.80;0.80;;;5.90;58.60;;;;;;5082937;28;20186;-85
2024/01/23 02:37:36;;;;;;;0.60;0.60;;;5.90;54.10;;;;;;5064828;28;20191;-85
2024/01/23 02:40:02;;;;;;;0.70;0.70;;;5.90;56.00;;;;;;5083468;28;20189;-86
2024/01/23 02:42:28;;;;;;;0.80;0.80;;;5.90;54.80;;;;;;5083594;28;20549;-86
2024/01/23 02:44:53;;;;;;;0.70;0.70;;;5.90;46.80;;;;;;5082501;28;20238;-83
2024/01/23 02:47:20;;;;;;;0.70;0.70;;;5.90;47.20;;;;;;5083917;28;20201;-84
2024/01/23 02:49:46;;;;;;;0.70;0.70;;;5.80;28.20;;;;;;5083375;28;20215;-86
2024/01/23 02:52:11;;;;;;;0.80;0.80;;;5.80;32.20;;;;;;5083429;28;20170;-86
2024/01/23 02:54:37;;;;;;;0.70;0.70;;;5.80;21.20;;;;;;5083292;28;20234;-85
2024/01/23 02:57:03;;;;;;;0.77;0.77;;;5.80;18.00;;;;;;5082772;28;20191;-84
2024/01/23 02:59:30;;;;;;;0.80;0.80;;;5.80;14.10;;;;;;5082618;28;20691;-86
2024/01/23 03:01:55;;;;;;;0.70;0.70;;;5.80;15.90;;;;;;5065146;28;20179;-86
2024/01/23 03:04:21;;;;;;;0.70;0.70;;;5.80;12.50;;;;;;5065329;28;20676;-84
2024/01/23 03:06:47;;;;;;;0.77;0.77;;;5.70;6.80;;;;;;5083681;28;20202;-85
2024/01/23 03:09:13;;;;;;;0.80;0.80;;;5.70;12.70;;;;;;5083888;28;20942;-86
2024/01/23 03:11:40;;;;;;;0.70;0.70;;;5.70;10.70;;;;;;5083377;28;20190;-84
2024/01/23 03:14:06;;;;;;;0.70;0.70;;;5.70;12.10;;;;;;5084047;28;20206;-85
2024/01/23 03:16:31;;;;;;;0.80;0.80;;;5.70;7.70;;;;;;5087748;28;20188;-84
2024/01/23 03:18:57;;;;;;;0.80;0.80;;;5.70;10.60;;;;;;5096656;28;20169;-82
2024/01/23 03:21:22;;;;;;;0.70;0.70;;;5.70;14.20;;;;;;5096068;28;20224;-83
2024/01/23 03:23:48;;;;;;;0.70;0.70;;;5.70;10.60;;;;;;5084695;28;20228;-86
2024/01/23 03:26:13;;;;;;;0.70;0.70;;;5.70;4.90;;;;;;5082746;28;20719;-83
2024/01/23 03:28:39;;;;;;;0.80;0.80;;;5.70;1.00;;;;;;5085829;28;20213;-82
2024/01/23 03:31:05;;;;;;;0.70;0.70;;;5.70;1.00;;;;;;5074970;28;20166;-85
2024/01/23 03:33:32;;;;;;;0.77;0.77;;;5.70;1.00;;;;;;5092174;28;20213;-84
2024/01/23 03:35:59;;;;;;;0.80;0.80;;;5.70;2.60;;;;;;5089412;28;20182;-83
2024/01/23 03:38:25;;;;;;;0.80;0.80;;;5.70;1.00;;;;;;5092868;28;20179;-82
2024/01/23 03:40:50;;;;;;;0.77;0.77;;;5.70;3.10;;;;;;5092013;28;20246;-83
2024/01/23 03:43:16;;;;;;;0.73;0.73;;;5.90;1.00;;;;;;5089060;28;20170;-86
2024/01/23 03:45:43;;;;;;;0.73;0.73;;;5.70;1.00;;;;;;5082916;28;20591;-84
2024/01/23 03:48:09;;;;;;;0.77;0.77;;;5.70;1.00;;;;;;5082717;28;20186;-85
2024/01/23 03:50:35;;;;;;;0.80;0.80;;;5.80;1.00;;;;;;5083940;28;20221;-85
2024/01/23 03:53:00;;;;;;;0.70;0.70;;;5.80;1.00;;;;;;5084411;28;20186;-84
2024/01/23 03:55:26;;;;;;;0.80;0.80;;;5.80;1.00;;;;;;5084654;28;20186;-84
2024/01/23 03:57:51;;;;;;;0.77;0.77;;;5.80;1.00;;;;;;5087921;28;20736;-80
2024/01/23 04:00:17;;;;;;;0.70;0.70;;;5.90;1.00;;;;;;5095567;28;20182;-81
2024/01/23 04:02:43;;;;;;;0.70;0.70;;;5.90;1.00;;;;;;5091229;28;20186;-80
2024/01/23 04:05:09;;;;;;;0.80;0.80;;;6.00;1.00;;;;;;5090692;28;20560;-82
2024/01/23 04:07:35;;;;;;;0.70;0.70;;;6.00;1.00;;;;;;5083226;28;20201;-85
2024/01/23 04:10:02;;;;;;;0.80;0.80;;;6.00;1.00;;;;;;5083471;28;20218;-84
2024/01/23 04:12:28;;;;;;;0.80;0.80;;;6.00;1.00;;;;;;5084098;28;20661;-87
2024/01/23 04:14:54;;;;;;;0.73;0.73;;;6.00;1.00;;;;;;5084555;28;20651;-84
2024/01/23 04:17:19;;;;;;;0.80;0.80;;;6.00;1.00;;;;;;5084328;28;20254;-83
2024/01/23 04:19:45;;;;;;;0.70;0.70;;;6.00;1.00;;;;;;5082471;28;20182;-86
2024/01/23 04:22:11;;;;;;;0.80;0.80;;;6.00;1.00;;;;;;5083897;28;20190;-84
2024/01/23 04:24:40;;;;;;;0.80;0.80;;;6.00;1.00;;;;;;5082764;28;20178;-86
2024/01/23 04:27:06;;;;;;;0.70;0.70;;;6.00;1.00;;;;;;5086382;28;20225;-83
2024/01/23 04:29:32;;;;;;;0.80;0.80;;;6.00;1.00;;;;;;5086092;28;20213;-84
2024/01/23 04:31:58;;;;;;;0.80;0.80;;;6.00;1.00;;;;;;5067143;28;20170;-82
2024/01/23 04:34:23;;;;;;;0.80;0.80;;;6.00;1.00;;;;;;5085939;28;20186;-85
2024/01/23 04:36:49;;;;;;;0.70;0.70;;;6.00;1.00;;;;;;5067003;28;20197;-86
2024/01/23 04:39:16;;;;;;;0.60;0.60;;;6.00;1.00;;;;;;5085489;28;20228;-85
2024/01/23 04:41:42;;;;;;;0.70;0.70;;;5.90;14.80;;;;;;5084942;28;20372;-85
2024/01/23 04:44:07;;;;;;;0.70;0.70;;;5.90;17.60;;;;;;5066957;28;20192;-84
2024/01/23 04:46:33;;;;;;;0.70;0.70;;;5.80;33.00;;;;;;5084254;28;20190;-85
2024/01/23 04:48:59;;;;;;;0.70;0.70;;;5.80;27.50;;;;;;5085093;28;20203;-84
2024/01/23 04:51:24;;;;;;;0.80;0.80;;;5.80;40.30;;;;;;5085490;28;20249;-84
2024/01/23 04:53:52;;;;;;;0.70;0.70;;;5.80;14.20;;;;;;5084902;28;20171;-85
2024/01/23 04:56:21;;;;;;;0.80;0.80;;;5.80;10.90;;;;;;5085134;28;20194;-85
2024/01/23 04:58:46;;;;;;;0.80;0.80;;;5.80;1.00;;;;;;5086809;28;20167;-83
2024/01/23 05:01:12;;;;;;;0.80;0.80;;;5.80;29.30;;;;;;5087439;28;20181;-87
2024/01/23 05:03:38;;;;;;;0.80;0.80;;;5.80;30.80;;;;;;5085839;28;20212;-84
2024/01/23 05:06:04;;;;;;;0.77;0.77;;;5.80;50.40;;;;;;5085140;28;20191;-84
2024/01/23 05:08:30;;;;;;;0.70;0.70;;;5.80;53.60;;;;;;5087478;28;20182;-86
2024/01/23 05:10:56;;;;;;;0.80;0.80;;;5.80;54.60;;;;;;5087125;28;20178;-87
2024/01/23 05:13:22;;;;;;;0.70;0.70;;;5.80;45.30;;;;;;5068785;28;20175;-86
2024/01/23 05:15:47;;;;;;;0.80;0.80;;;5.80;29.10;;;;;;5087458;28;20190;-85
2024/01/23 05:18:13;;;;;;;0.80;0.80;;;5.80;18.50;;;;;;5090432;28;20170;-82
2024/01/23 05:20:38;;;;;;;0.80;0.80;;;5.80;22.90;;;;;;5098052;28;20190;-84
2024/01/23 05:23:05;;;;;;;0.70;0.70;;;5.80;41.50;;;;;;5097677;28;20200;-84
2024/01/23 05:25:32;;;;;;;0.80;0.80;;;5.80;27.30;;;;;;5094130;28;20190;-82
2024/01/23 05:27:58;;;;;;;0.70;0.70;;;5.80;13.90;;;;;;5065085;28;20226;-84
2024/01/23 05:30:24;;;;;;;0.80;0.80;;;5.80;17.10;;;;;;5083710;28;20210;-85
2024/01/23 05:32:50;;;;;;;0.80;0.80;;;5.60;16.10;;;;;;5081819;28;20192;-87
2024/01/23 05:35:16;;;;;;;0.70;0.70;;;5.90;26.80;;;;;;5083249;28;20198;-84
2024/01/23 05:37:43;;;;;;;0.80;0.80;;;5.80;31.50;;;;;;5081677;28;20245;-85
2024/01/23 05:40:12;;;;;;;0.80;0.80;;;5.80;47.50;;;;;;5083734;28;20179;-86
2024/01/23 05:42:38;;;;;;;0.70;0.70;;;5.80;59.60;;;;;;5083259;28;20167;-84
2024/01/23 05:45:04;;;;;;;0.83;0.83;;;5.70;57.40;;;;;;5100591;28;20189;-85
2024/01/23 05:47:30;;;;;;;0.80;0.80;;;5.70;42.70;;;;;;5086244;28;20232;-84
2024/01/23 05:49:56;;;;;;;0.90;0.90;;;6.40;36.00;;;;;;5066911;28;20625;-86
2024/01/23 05:52:21;;;;;;;0.87;0.87;;;5.70;35.20;;;;;;5083267;28;20177;-84
2024/01/23 05:54:47;;;;;;;0.70;0.70;;;5.80;26.20;;;;;;5083822;28;20257;-83
2024/01/23 05:57:12;;;;;;;0.80;0.80;;;5.70;11.50;;;;;;5084062;28;20191;-86
2024/01/23 05:59:39;;;;;;;0.77;0.77;;;5.70;7.50;;;;;;5085046;28;20201;-85
2024/01/23 06:02:04;;;;;;;0.70;0.70;;;5.80;7.20;;;;;;5084113;28;20238;-86
2024/01/23 06:04:31;;;;;;;0.80;0.80;;;5.80;1.00;;;;;;5085022;28;20181;-85
2024/01/23 06:06:59;;;;;;;0.80;0.80;;;5.70;1.00;;;;;;5085124;28;20201;-84
2024/01/23 06:09:24;;;;;;;0.80;0.80;;;5.70;1.00;;;;;;5086000;28;20286;-85
2024/01/23 06:11:52;;;;;;;0.80;0.80;;;5.70;1.00;;;;;;5085931;28;20562;-86
2024/01/23 06:14:18;;;;;;;0.67;0.67;;;5.60;5.20;;;;;;5099319;28;20170;-85
2024/01/23 06:16:44;;;;;;;0.77;0.77;;;5.60;1.00;;;;;;5083841;28;20200;-85
2024/01/23 06:19:10;;;;;;;0.80;0.80;;;5.60;1.00;;;;;;5085036;28;20253;-85
2024/01/23 06:21:36;;;;;;;0.70;0.70;;;5.60;1.00;;;;;;5066064;28;20175;-82
2024/01/23 06:24:01;;;;;;;0.90;0.90;;;5.50;1.00;;;;;;5085127;28;20242;-85
2024/01/23 06:26:27;;;;;;;0.80;0.80;;;5.50;1.00;;;;;;5100276;28;20190;-87
2024/01/23 06:28:52;;;;;;;0.77;0.77;;;5.50;1.00;;;;;;5066893;28;20711;-86
2024/01/23 06:31:25;;;;;;;0.90;0.90;;;5.50;1.00;;;;;;5085622;28;20233;-85
2024/01/23 06:33:51;;;;;;;0.80;0.80;;;5.40;3.90;;;;;;5085307;28;20182;-85
2024/01/23 06:36:16;;;;;;;0.80;0.80;;;5.40;8.20;;;;;;5086886;28;20190;-85
2024/01/23 06:38:42;;;;;;;0.70;0.70;;;5.40;12.30;;;;;;5091417;28;20232;-86
2024/01/23 06:41:08;;;;;;;0.80;0.80;;;5.30;13.60;;;;;;5092233;28;20186;-81
2024/01/23 06:43:34;;;;;;;0.70;0.70;;;5.30;2.80;;;;;;5092724;28;20186;-84
2024/01/23 06:46:00;;;;;;;0.70;0.70;;;5.30;1.00;;;;;;5092598;28;20185;-84
2024/01/23 06:48:25;;;;;;;0.70;0.70;;;5.20;1.00;;;;;;5089320;28;20185;-84
2024/01/23 06:50:51;;;;;;;0.70;0.70;;;5.20;1.00;;;;;;5094150;28;20190;-83
2024/01/23 06:53:16;;;;;;;0.80;0.80;;;5.20;1.00;;;;;;5071641;28;20182;-85
2024/01/23 06:55:44;;;;;;;0.70;0.70;;;5.20;4.70;;;;;;5080051;28;20175;-86
2024/01/23 06:58:09;;;;;;;0.70;0.70;;;5.20;8.00;;;;;;5082121;28;20178;-85
2024/01/23 07:00:35;;;;;;;0.80;0.80;;;5.20;7.30;;;;;;5091187;28;20734;-86
2024/01/23 07:03:01;;;;;;;0.80;0.80;;;5.30;5.20;;;;;;5088123;28;20175;-86
2024/01/23 07:05:26;;;;;;;0.77;0.77;;;5.30;5.80;;;;;;5081369;28;20175;-84
2024/01/23 07:07:54;;;;;;;0.70;0.70;;;5.30;7.20;;;;;;5091718;28;20206;-84
2024/01/23 07:10:20;;;;;;;0.70;0.70;;;5.20;4.30;;;;;;5091123;28;20253;-85
2024/01/23 07:12:47;;;;;;;0.70;0.70;;;5.20;1.00;;;;;;5095882;28;20171;-83
2024/01/23 07:15:14;;;;;;;0.70;0.70;;;5.10;1.00;;;;;;5089338;28;20174;-84
2024/01/23 07:17:40;;;;;;;0.73;0.73;;;5.00;1.00;;;;;;5079900;28;20209;-84
2024/01/23 07:20:10;;;;;;;0.70;0.70;;;5.00;1.00;;;;;;5061626;28;20183;-86
2024/01/23 07:22:35;;;;;;;0.80;0.80;;;4.90;1.00;;;;;;5045691;28;20220;-85
2024/01/23 07:25:01;;;;;;;0.70;0.70;;;4.80;1.00;;;;;;5081517;28;20668;-86
2024/01/23 07:27:28;;;;;;;0.90;0.90;;;4.80;1.00;;;;;;5084301;28;20271;-86
2024/01/23 07:29:53;;;;;;;0.70;0.70;;;4.80;1.00;;;;;;5089576;28;20202;-87
2024/01/23 07:32:19;;;;;;;0.80;0.80;;;4.80;1.00;;;;;;5071315;28;20181;-88
2024/01/23 07:34:44;;;;;;;0.70;0.70;;;4.80;1.00;;;;;;5087800;28;20189;-87
2024/01/23 07:37:10;;;;;;;0.80;0.80;;;4.90;17.10;;;;;;5080819;28;20198;-91
2024/01/23 07:39:36;;;;;;;0.80;0.80;;;4.90;1.00;;;;;;5066365;28;20179;-88
2024/01/23 07:42:02;;;;;;;0.80;0.80;;;5.00;1.00;;;;;;5081931;28;20182;-87
2024/01/23 07:44:28;;;;;;;0.70;0.70;;;5.00;1.00;;;;;;5077906;28;20181;-86
2024/01/23 07:46:54;;;;;;;0.70;0.70;;;5.10;1.00;;;;;;5086625;28;20278;-86
2024/01/23 07:49:20;;;;;;;0.80;0.80;;;5.20;1.00;;;;;;5091705;28;20195;-86
2024/01/23 07:51:50;;;;;;;0.70;0.70;;;5.20;1.00;;;;;;5092676;28;20174;-86
2024/01/23 07:54:15;;;;;;;0.80;0.80;;;5.10;1.00;;;;;;5087556;28;20170;-83
2024/01/23 07:56:41;;;;;;;0.80;0.80;;;5.10;1.00;;;;;;5082851;28;20199;-86
2024/01/23 07:59:10;;;;;;;0.70;0.70;;;5.20;1.00;;;;;;5066224;28;20193;-85
2024/01/23 08:01:37;;;;;;;0.70;0.70;;;5.80;1.00;;;;;;5084060;28;20762;-83
2024/01/23 08:04:02;;;;;;;0.70;0.70;;;6.20;1.00;;;;;;5073287;28;20174;-85
2024/01/23 08:06:28;;;;;;;0.70;0.70;;;6.80;1.00;;;;;;5078488;28;20202;-85
2024/01/23 08:08:54;;;;;;;0.70;0.70;;;7.30;99.90;;;;;;5080627;28;20306;-84
2024/01/23 08:11:21;;;;;;;0.60;0.60;;;6.70;99.90;;;;;;5097268;28;20194;-85
2024/01/23 08:13:46;;;;;;;0.70;0.70;;;6.60;1.00;;;;;;5104712;28;20367;-85
2024/01/23 08:16:12;;;;;;;0.80;0.80;;;6.70;1.00;;;;;;5105021;28;20569;-85
2024/01/23 08:18:38;;;;;;;0.70;0.70;;;6.30;1.00;;;;;;5087167;28;20177;-85
2024/01/23 08:21:05;;;;;;;0.80;0.80;;;6.20;1.00;;;;;;5096073;28;20836;-84
2024/01/23 08:23:30;;;;;;;0.73;0.73;;;6.20;1.00;;;;;;5065214;28;20170;-85
2024/01/23 08:25:56;;;;;;;0.80;0.80;;;6.10;1.00;;;;;;5090260;28;20189;-85
2024/01/23 08:28:23;;;;;;;0.70;0.70;;;6.30;1.00;;;;;;5086574;28;20198;-86
2024/01/23 08:30:49;;;;;;;0.80;0.80;;;6.20;1.00;;;;;;5085045;28;20206;-86
2024/01/23 08:33:18;;;;;;;0.77;0.77;;;6.50;1.00;;;;;;5085552;28;20234;-86
2024/01/23 08:35:44;;;;;;;0.70;0.70;;;6.70;1.00;;;;;;5084723;28;20205;-85
2024/01/23 08:38:10;;;;;;;0.70;0.70;;;7.00;1.00;;;;;;5084860;28;20189;-87
2024/01/23 08:40:37;;;;;;;0.80;0.80;;;7.30;99.90;;;;;;5085290;28;20170;-86
2024/01/23 08:43:03;;;;;;;0.70;0.70;;;7.30;99.90;;;;;;5083834;28;20171;-86
2024/01/23 08:45:29;;;;;;;0.70;0.70;;;7.20;99.90;;;;;;5082995;28;20174;-87
2024/01/23 08:47:55;;;;;;;0.70;0.70;;;7.00;99.90;;;;;;5079608;28;20194;-86
2024/01/23 08:50:21;;;;;;;0.70;0.70;;;6.80;99.90;;;;;;5064112;28;20206;-87
2024/01/23 08:52:47;;;;;;;0.70;0.70;;;6.70;1.00;;;;;;5082734;28;20175;-87
2024/01/23 08:55:13;;;;;;;0.80;0.80;;;6.70;1.00;;;;;;5083340;28;20186;-86
2024/01/23 08:57:38;;;;;;;0.80;0.80;;;6.50;1.00;;;;;;5090207;28;20194;-85
2024/01/23 09:00:05;;;;;;;0.77;0.77;;;6.40;1.00;;;;;;5081267;28;20626;-86
2024/01/23 09:02:31;;;;;;;0.70;0.70;;;6.30;1.00;;;;;;5090809;28;20175;-86
2024/01/23 09:04:57;;;;;;;0.63;0.63;;;6.20;1.00;;;;;;5080833;28;20592;-84
2024/01/23 09:07:22;;;;;;;0.80;0.80;;;6.20;1.00;;;;;;5078401;28;20194;-85
2024/01/23 09:09:51;;;;;;;0.80;0.80;;;6.20;1.00;;;;;;5081039;28;20290;-85
2024/01/23 09:12:17;;;;;;;0.80;0.80;;;6.60;1.00;;;;;;5082679;28;20426;-84
2024/01/23 09:14:45;;;;;;;0.80;0.80;;;6.10;1.00;;;;;;5099042;28;20188;-87
2024/01/23 09:17:11;;;;;;;0.70;0.70;;;6.60;1.00;;;;;;5099262;28;20198;-87
2024/01/23 09:19:37;;;;;;;0.70;0.70;;;6.20;1.00;;;;;;5082161;28;20200;-90
2024/01/23 09:22:04;;;;;;;0.70;0.70;;;6.40;1.00;;;;;;5094361;28;20179;-89
2024/01/23 09:24:30;;;;;;;0.80;0.80;;;6.30;1.00;;;;;;5095436;28;20289;-89
2024/01/23 09:26:59;;;;;;;0.70;0.70;;;6.40;1.00;;;;;;5089625;28;20217;-88
2024/01/23 09:29:26;;;;;;;0.70;0.70;;;6.40;1.00;;;;;;5071860;28;20199;-90
2024/01/23 09:31:52;;;;;;;0.70;0.70;;;6.40;1.00;;;;;;5088952;28;20202;-87
2024/01/23 09:34:17;;;;;;;0.90;0.90;;;6.50;1.00;;;;;;5089003;28;20178;-87
2024/01/23 09:36:43;;;;;;;0.80;0.80;;;7.30;1.00;;;;;;5089922;28;20195;-86
2024/01/23 09:39:13;;;;;;;0.70;0.70;;;6.70;1.00;;;;;;5092074;28;20183;-88
2024/01/23 09:41:49;;;;;;;0.80;0.80;;;6.70;1.00;;;;;;5089640;28;20744;-87
2024/01/23 09:44:18;;;;;;;0.80;0.80;;;6.80;1.00;;;;;;5091480;28;20223;-87
2024/01/23 09:46:44;;;;;;;0.70;0.70;;;6.80;1.00;;;;;;5086864;28;20649;-88
2024/01/23 09:49:10;;;;;;;0.80;0.80;;;6.80;1.00;;;;;;5085176;28;20221;-88
2024/01/23 09:51:39;;;;;;;0.73;0.73;;;6.80;1.00;;;;;;5088269;28;20175;-86
2024/01/23 09:54:05;;;;;;;0.70;0.70;;;6.80;1.00;;;;;;5094478;28;20197;-92
2024/01/23 09:56:32;;;;;;;0.80;0.80;;;6.90;1.00;;;;;;5088041;28;20202;-86
2024/01/23 09:58:58;;;;;;;0.70;0.70;;;7.00;1.00;;;;;;5089356;28;20174;-87
2024/01/23 10:01:26;;;;;;;0.70;0.70;;;7.10;1.00;;;;;;5090261;28;20194;-90
2024/01/23 10:03:56;;;;;;;0.70;0.70;;;7.50;1.00;;;;;;5093297;28;20625;-85
2024/01/23 10:06:21;;;;;;;0.80;0.80;;;7.00;1.00;;;;;;5105860;28;20201;-88
2024/01/23 10:08:47;;;;;;;0.70;0.70;;;7.20;1.00;;;;;;5088791;28;20285;-87
2024/01/23 10:11:13;;;;;;;0.70;0.70;;;7.20;1.00;;;;;;5087521;28;20233;-86
2024/01/23 10:13:42;;;;;;;0.60;0.60;;;7.50;1.00;;;;;;5091211;28;20170;-88
2024/01/23 10:16:08;;;;;;;0.77;0.77;;;7.20;1.00;;;;;;5069501;28;20211;-88
2024/01/23 10:18:33;;;;;;;0.70;0.70;;;7.20;1.00;;;;;;5074556;28;20273;-87
2024/01/23 10:20:59;;;;;;;0.67;0.67;;;7.30;1.00;;;;;;5073964;28;20206;-87
2024/01/23 10:23:26;;;;;;;0.70;0.70;;;7.40;1.00;;;;;;5092762;28;20234;-89
2024/01/23 10:25:54;;;;;;;0.70;0.70;;;7.60;1.00;;;;;;5087252;28;20273;-88
2024/01/23 10:28:22;;;;;;;0.70;0.70;;;7.90;1.00;;;;;;5084762;28;20204;-86
2024/01/23 10:30:49;;;;;;;0.60;0.60;;;7.50;1.00;;;;;;5080931;28;20194;-87
2024/01/23 10:33:15;;;;;;;0.60;0.60;;;7.40;1.00;;;;;;5085896;28;20580;-86
2024/01/23 10:35:42;;;;;;;0.70;0.70;;;7.50;1.00;;;;;;5085901;28;20178;-89
2024/01/23 10:38:13;;;;;;;0.70;0.70;;;7.50;1.00;;;;;;5087864;28;20516;-89
2024/01/23 10:40:39;;;;;;;0.63;0.63;;;7.90;1.00;;;;;;5086525;28;20174;-89
2024/01/23 10:43:06;;;;;;;0.70;0.70;;;7.70;1.00;;;;;;5087050;28;20182;-88
2024/01/23 10:45:32;;;;;;;0.70;0.70;;;7.90;1.00;;;;;;5067491;28;20178;-89
2024/01/23 10:48:00;;;;;;;0.70;0.70;;;7.70;1.00;;;;;;5066838;28;20207;-89
2024/01/23 10:50:29;;;;;;;0.60;0.60;;;7.90;1.00;;;;;;5069106;28;20202;-93
2024/01/23 10:53:02;;;;;;;0.60;0.60;;;8.20;1.00;;;;;;5089597;28;20171;-91
2024/01/23 10:55:31;;;;;;;0.60;0.60;;;9.20;1.00;;;;;;5061906;28;20175;-88
2024/01/23 10:58:02;;;;;;;0.50;0.50;;;10.40;99.90;;;;;;5059838;28;20206;-87
2024/01/23 11:00:31;;;;;;;0.40;0.40;;;11.50;99.90;;;;;;5062546;28;20175;-87
2024/01/23 11:03:04;;;;;;;0.40;0.40;;;11.70;99.90;;;;;;5056625;28;20160;-86
2024/01/23 11:05:43;;;;;;;0.40;0.40;;;12.20;26.40;;;;;;5076448;28;20178;-88
2024/01/23 11:08:14;;;;;;;0.60;0.60;;;12.70;1.00;;;;;;5071131;28;20645;-86
2024/01/23 11:11:06;;;;;;;0.50;0.50;;;13.20;1.00;;;;;;5090078;28;20467;-83
2024/01/23 11:13:38;;;;;;;0.40;0.40;;;14.00;1.00;;;;;;5096801;28;20186;-84
2024/01/23 11:16:06;;;;;;;0.50;0.50;;;14.40;1.00;;;;;;5065445;28;20198;-86
2024/01/23 11:18:33;;;;;;;0.30;0.30;;;14.50;1.00;;;;;;5078512;28;20647;-85
2024/01/23 11:23:33;;;;;;;0.40;0.40;;;14.50;1.00;;;;;;5078219;28;20269;-85
2024/01/23 11:26:22;;;;;;;0.40;0.40;;;15.00;1.00;;;;;;5078493;28;20170;-85
2024/01/23 11:28:59;;;;;;;0.50;0.50;;;14.60;1.00;;;;;;5078146;28;20276;-86
2024/01/23 11:31:26;;;;;;;0.40;0.40;;;14.50;1.00;;;;;;5107416;28;20196;-84
2024/01/23 11:33:53;;;;;;;0.40;0.40;;;14.40;1.00;;;;;;5076840;28;20231;-84
2024/01/23 11:36:26;;;;;;;0.40;0.40;;;14.60;1.00;;;;;;5056323;28;20647;-84
2024/01/23 11:38:56;;;;;;;0.40;0.40;;;14.70;1.00;;;;;;5078266;28;20170;-85
2024/01/23 11:41:24;;;;;;;0.40;0.40;;;14.80;1.00;;;;;;5075441;28;20178;-84
2024/01/23 11:43:52;;;;;;;0.40;0.40;;;15.20;1.00;;;;;;5077798;28;20254;-86
2024/01/23 11:46:19;;;;;;;0.30;0.30;;;15.20;1.00;;;;;;5077431;28;20206;-85
2024/01/23 11:48:44;;;;;;;0.50;0.50;;;14.70;1.00;;;;;;5078695;28;20174;-87
2024/01/23 11:51:14;;;;;;;0.43;0.43;;;14.20;1.00;;;;;;5077990;28;20170;-85
2024/01/23 11:53:43;;;;;;;0.50;0.50;;;13.90;1.00;;;;;;5080622;28;20190;-82
2024/01/23 11:56:10;;;;;;;0.50;0.50;;;13.80;1.00;;;;;;5076968;28;20289;-86
2024/01/23 11:58:36;;;;;;;0.50;0.50;;;12.90;1.00;;;;;;5076072;28;20205;-85
2024/01/23 12:01:04;;;;;;;0.70;0.70;;;12.50;1.00;;;;;;5075745;28;20189;-86
2024/01/23 12:03:29;;;;;;;0.43;0.43;;;12.20;1.00;;;;;;5076679;28;20193;-84
2024/01/23 12:05:55;;;;;;;0.40;0.40;;;11.80;1.00;;;;;;5081703;28;20258;-85
2024/01/23 12:08:23;;;;;;;0.50;0.50;;;12.10;1.00;;;;;;5083554;28;20217;-86
2024/01/23 12:10:49;;;;;;;0.60;0.60;;;12.50;1.00;;;;;;5077471;28;20213;-86
2024/01/23 12:13:15;;;;;;;0.60;0.60;;;12.60;1.00;;;;;;5061217;28;20656;-85
2024/01/23 12:15:41;;;;;;;0.40;0.40;;;12.80;1.00;;;;;;5058632;28;20289;-87
2024/01/23 12:18:13;;;;;;;0.40;0.40;;;13.00;1.00;;;;;;5080516;28;20225;-86
2024/01/23 12:20:42;;;;;;;0.50;0.50;;;12.90;1.00;;;;;;5078531;28;20170;-85
2024/01/23 12:23:08;;;;;;;0.50;0.50;;;13.00;1.00;;;;;;5081470;28;20182;-86
2024/01/23 12:25:34;;;;;;;0.50;0.50;;;12.70;1.00;;;;;;5079478;28;20171;-88
2024/01/23 12:28:00;;;;;;;0.43;0.43;;;12.80;1.00;;;;;;5092405;28;20226;-84
2024/01/23 12:30:25;;;;;;;0.60;0.60;;;13.30;1.00;;;;;;5078476;28;20255;-85
2024/01/23 12:32:51;;;;;;;0.40;0.40;;;13.80;1.00;;;;;;5072239;28;20751;-86
2024/01/23 12:35:17;;;;;;;0.40;0.40;;;13.90;1.00;;;;;;5077665;28;20575;-85
2024/01/23 12:37:42;;;;;;;0.50;0.50;;;13.90;1.00;;;;;;5078455;28;20281;-86
2024/01/23 12:40:13;;;;;;;0.50;0.50;;;14.10;1.00;;;;;;5080469;28;20178;-86
2024/01/23 12:42:40;;;;;;;0.40;0.40;;;13.80;1.00;;;;;;5078627;28;20179;-87
2024/01/23 12:45:13;;;;;;;0.47;0.47;;;13.00;1.00;;;;;;5077437;28;20241;-87
2024/01/23 12:47:39;;;;;;;0.40;0.40;;;12.50;1.00;;;;;;5080465;28;20190;-86
2024/01/23 12:50:05;;;;;;;0.50;0.50;;;12.20;1.00;;;;;;5082229;28;20304;-86
2024/01/23 12:52:31;;;;;;;0.40;0.40;;;12.00;1.00;;;;;;5070369;28;20171;-86
2024/01/23 12:54:57;;;;;;;0.40;0.40;;;11.50;1.00;;;;;;5096239;28;20242;-85
2024/01/23 12:57:23;;;;;;;0.50;0.50;;;11.40;1.00;;;;;;5095447;28;20206;-83
2024/01/23 12:59:48;;;;;;;0.40;0.40;;;11.40;1.00;;;;;;5101295;28;20165;-84
2024/01/23 13:02:14;;;;;;;0.47;0.47;;;11.10;1.00;;;;;;5096314;28;20193;-84